Time;durP1;ratioP1;P1;durP2;ratioP2;P2;SDS_P1;SDS_P2;PMS_P1;PMS_P2;Temp;Humidity;BMP_temperature;BMP_pressure;BME280_temperature;BME280_humidity;BME280_pressure;Samples;Min_cycle;Max_cycle;Signal;HPM_P1;HPM_P2
2021/06/29 00:03:47;;;;;;;7.40;5.97;;;23.00;67.70;;;;;;20746266;28;20144;-21
2021/06/29 00:13:48;;;;;;;5.77;4.53;;;23.00;67.60;;;;;;20738688;28;20092;-21
2021/06/29 00:23:48;;;;;;;5.60;5.07;;;23.00;67.50;;;;;;20739642;28;20535;-21
2021/06/29 00:33:50;;;;;;;6.15;5.32;;;23.00;67.20;;;;;;20749482;28;21114;-20
2021/06/29 00:43:52;;;;;;;5.38;4.88;;;23.00;67.80;;;;;;20751819;23;20050;-21
2021/06/29 00:53:53;;;;;;;5.30;4.80;;;23.00;67.80;;;;;;20757592;28;20030;-20
2021/06/29 01:03:53;;;;;;;4.57;4.00;;;23.00;67.50;;;;;;20756637;28;20032;-20
2021/06/29 01:13:54;;;;;;;8.15;4.80;;;23.00;67.50;;;;;;20755023;28;20021;-20
2021/06/29 01:23:56;;;;;;;6.47;4.72;;;22.90;68.10;;;;;;20756736;28;20478;-20
2021/06/29 01:33:57;;;;;;;6.53;4.53;;;22.90;68.00;;;;;;20748448;28;20026;-20
2021/06/29 01:44:06;;;;;;;10.57;4.53;;;22.80;68.00;;;;;;20755422;28;20397;-21
2021/06/29 01:54:08;;;;;;;9.02;4.13;;;22.90;67.70;;;;;;20756269;28;20057;-20
2021/06/29 02:04:08;;;;;;;6.93;3.30;;;22.80;67.40;;;;;;20777120;28;20088;-20
2021/06/29 02:14:09;;;;;;;5.53;3.03;;;22.70;67.10;;;;;;20742129;28;20077;-20
2021/06/29 02:24:09;;;;;;;5.13;2.42;;;22.70;67.00;;;;;;20751214;28;20129;-20
2021/06/29 02:34:10;;;;;;;5.95;2.47;;;22.70;67.00;;;;;;20759649;28;20029;-20
2021/06/29 02:44:11;;;;;;;9.32;2.80;;;22.70;66.80;;;;;;20764349;28;20405;-19
2021/06/29 02:54:12;;;;;;;8.15;2.28;;;22.70;66.70;;;;;;20764437;28;20026;-20
2021/06/29 03:04:13;;;;;;;4.20;2.70;;;22.70;66.60;;;;;;20762222;28;20569;-20
2021/06/29 03:14:14;;;;;;;4.70;2.35;;;22.70;66.90;;;;;;20762797;28;20025;-20
2021/06/29 03:24:14;;;;;;;8.10;4.10;;;22.70;66.80;;;;;;20762137;28;20040;-20
2021/06/29 03:34:15;;;;;;;8.85;3.40;;;22.70;67.60;;;;;;20752998;28;20508;-21
2021/06/29 03:44:15;;;;;;;8.40;3.47;;;22.70;68.80;;;;;;20762964;28;20037;-20
2021/06/29 03:54:16;;;;;;;11.50;3.70;;;22.70;70.30;;;;;;20771253;28;20548;-20
2021/06/29 04:04:17;;;;;;;5.45;3.42;;;22.70;70.00;;;;;;20753662;28;20030;-20
2021/06/29 04:14:17;;;;;;;3.92;2.70;;;22.70;70.30;;;;;;20746593;28;20026;-20
2021/06/29 04:24:18;;;;;;;8.82;3.60;;;22.70;70.00;;;;;;20744328;28;20032;-20
2021/06/29 04:34:18;;;;;;;5.82;2.25;;;22.70;70.50;;;;;;20738981;28;20374;-20
2021/06/29 04:44:19;;;;;;;3.65;2.60;;;22.70;70.60;;;;;;20751957;28;20040;-20
2021/06/29 04:54:20;;;;;;;5.72;3.03;;;22.70;70.30;;;;;;20751560;28;20037;-20
2021/06/29 05:04:20;;;;;;;3.42;2.90;;;22.70;70.10;;;;;;20761459;28;20060;-20
2021/06/29 05:14:21;;;;;;;2.97;2.20;;;22.70;70.60;;;;;;20742404;28;20391;-20
2021/06/29 05:24:21;;;;;;;6.18;2.33;;;22.80;70.00;;;;;;20721453;28;20036;-21
2021/06/29 05:34:22;;;;;;;14.48;4.43;;;22.70;70.60;;;;;;20728744;28;20534;-20
2021/06/29 05:44:23;;;;;;;6.00;2.90;;;22.80;70.80;;;;;;20730290;28;20045;-21
2021/06/29 05:54:23;;;;;;;15.40;3.08;;;22.80;70.50;;;;;;20747151;28;20121;-21
2021/06/29 06:04:24;;;;;;;66.65;17.77;;;22.80;70.60;;;;;;20746673;28;20040;-20
2021/06/29 06:14:24;;;;;;;25.23;8.57;;;22.80;70.70;;;;;;20758524;28;20024;-20
2021/06/29 06:24:25;;;;;;;22.75;5.15;;;22.80;70.70;;;;;;20730389;28;20084;-20
2021/06/29 06:34:25;;;;;;;20.63;5.20;;;22.80;70.90;;;;;;20744081;28;20098;-21
2021/06/29 06:44:26;;;;;;;8.98;4.40;;;22.80;71.10;;;;;;20811164;23;20186;-20
2021/06/29 06:54:27;;;;;;;7.57;3.60;;;22.80;71.10;;;;;;20837565;28;20025;-21
2021/06/29 07:04:27;;;;;;;7.00;2.65;;;22.80;71.20;;;;;;20771516;28;20022;-21
2021/06/29 07:14:28;;;;;;;4.93;3.20;;;22.90;71.50;;;;;;20823587;28;20029;-21
2021/06/29 07:24:28;;;;;;;6.45;2.40;;;22.90;71.70;;;;;;20839114;28;20064;-21
2021/06/29 07:34:29;;;;;;;5.85;2.83;;;23.00;72.50;;;;;;20847119;28;20036;-21
2021/06/29 07:44:29;;;;;;;7.38;3.15;;;23.10;72.00;;;;;;20847545;28;20485;-21
2021/06/29 07:54:30;;;;;;;8.05;2.63;;;23.10;72.30;;;;;;20846479;28;20034;-20
2021/06/29 08:04:31;;;;;;;4.38;3.17;;;23.10;72.10;;;;;;20799364;28;20029;-20
2021/06/29 08:14:31;;;;;;;7.75;3.33;;;23.10;72.10;;;;;;20812431;28;20030;-20
2021/06/29 08:24:32;;;;;;;3.07;2.10;;;23.10;72.30;;;;;;20854987;28;20578;-20
2021/06/29 08:34:33;;;;;;;4.60;3.00;;;23.10;72.20;;;;;;20843007;28;20113;-20
2021/06/29 08:44:34;;;;;;;3.58;2.53;;;23.10;72.20;;;;;;20853071;28;20038;-20
2021/06/29 08:54:35;;;;;;;5.68;2.65;;;23.10;72.30;;;;;;20807298;28;20034;-21
2021/06/29 09:04:46;;;;;;;3.55;2.80;;;23.10;72.20;;;;;;20814500;28;20028;-20
2021/06/29 09:14:47;;;;;;;9.40;3.30;;;23.10;72.10;;;;;;20844981;28;20060;-20
2021/06/29 09:24:47;;;;;;;5.75;2.67;;;23.10;72.30;;;;;;20838919;28;20034;-20
2021/06/29 09:35:04;;;;;;;4.40;2.58;;;23.20;72.20;;;;;;20846631;28;20030;-22
2021/06/29 09:45:33;;;;;;;4.73;3.03;;;23.20;72.20;;;;;;20847573;28;20053;-21
2021/06/29 09:55:42;;;;;;;7.57;3.53;;;23.20;72.40;;;;;;20842263;28;20379;-20
2021/06/29 10:05:42;;;;;;;4.18;2.70;;;23.20;72.40;;;;;;20855349;28;20025;-20
2021/06/29 10:15:43;;;;;;;4.67;2.43;;;23.20;72.90;;;;;;20853627;28;20040;-21
2021/06/29 10:25:44;;;;;;;4.90;2.35;;;23.20;71.90;;;;;;20830663;28;20116;-21
2021/06/29 10:35:46;;;;;;;3.88;2.15;;;23.20;71.70;;;;;;20843987;28;20054;-21
2021/06/29 10:45:52;;;;;;;3.45;2.13;;;23.20;71.40;;;;;;20817334;28;20152;-21
2021/06/29 10:55:53;;;;;;;4.63;3.33;;;23.30;71.30;;;;;;20848972;28;20040;-21
2021/06/29 11:06:01;;;;;;;5.23;2.30;;;23.30;71.00;;;;;;20822871;28;20489;-20
2021/06/29 11:16:01;;;;;;;3.05;2.42;;;23.30;71.30;;;;;;20821027;28;20466;-20
2021/06/29 11:26:19;;;;;;;3.35;2.28;;;23.30;71.10;;;;;;20794330;28;20037;-19
2021/06/29 11:46:52;;;;;;;6.22;2.28;;;23.40;70.50;;;;;;20841759;28;20489;-20
2021/06/29 11:56:56;;;;;;;4.45;2.00;;;23.50;70.10;;;;;;20838146;28;20419;-20
2021/06/29 12:07:06;;;;;;;3.03;1.90;;;23.50;69.90;;;;;;20828272;28;20025;-20
2021/06/29 12:17:07;;;;;;;2.85;1.77;;;23.50;69.80;;;;;;20847286;28;20038;-20
2021/06/29 12:27:17;;;;;;;2.93;1.97;;;23.50;69.60;;;;;;20847910;28;20029;-20
2021/06/29 12:37:18;;;;;;;3.00;1.90;;;23.40;69.60;;;;;;20813031;28;20468;-20
2021/06/29 12:47:19;;;;;;;3.53;1.77;;;23.40;69.40;;;;;;20848544;23;20069;-19
2021/06/29 12:57:19;;;;;;;6.40;1.90;;;23.40;69.30;;;;;;20853191;28;20382;-20
2021/06/29 13:07:20;;;;;;;9.15;3.17;;;23.50;69.60;;;;;;20867377;28;20041;-20
2021/06/29 13:17:21;;;;;;;2.50;1.73;;;23.50;69.10;;;;;;20870756;28;20112;-19
2021/06/29 13:27:29;;;;;;;5.65;2.08;;;23.50;69.30;;;;;;20886241;28;20116;-17
2021/06/29 13:37:30;;;;;;;3.28;1.77;;;23.40;69.10;;;;;;20882086;28;20025;-18
2021/06/29 13:47:44;;;;;;;2.80;1.90;;;23.50;69.00;;;;;;20876354;28;20111;-17
2021/06/29 13:57:44;;;;;;;3.40;1.85;;;23.50;68.70;;;;;;20867901;28;20456;-17
2021/06/29 14:07:45;;;;;;;9.75;3.08;;;23.50;68.70;;;;;;20831514;28;20472;-17
2021/06/29 14:17:45;;;;;;;18.65;5.03;;;23.50;68.60;;;;;;20825919;28;20037;-17
2021/06/29 14:27:50;;;;;;;11.37;3.33;;;23.50;68.30;;;;;;20873361;28;20039;-17
2021/06/29 14:37:52;;;;;;;15.73;3.25;;;23.50;68.40;;;;;;20851945;28;20171;-17
2021/06/29 14:47:52;;;;;;;33.00;6.35;;;23.60;68.90;;;;;;20844179;28;20404;-16
2021/06/29 14:57:53;;;;;;;12.10;3.95;;;23.60;68.80;;;;;;20869312;28;20040;-16
2021/06/29 15:07:59;;;;;;;14.40;3.70;;;23.50;69.00;;;;;;20844290;28;20032;-17
2021/06/29 15:18:00;;;;;;;9.18;3.55;;;23.50;69.00;;;;;;20847331;28;20026;-17
2021/06/29 15:28:01;;;;;;;9.95;3.75;;;23.50;69.20;;;;;;20832257;28;20116;-17
2021/06/29 15:38:04;;;;;;;13.93;5.13;;;23.50;69.00;;;;;;20828906;28;20033;-17
2021/06/29 15:48:05;;;;;;;17.42;4.70;;;23.50;69.10;;;;;;20833541;28;20509;-16
2021/06/29 15:58:06;;;;;;;13.15;4.28;;;23.40;69.60;;;;;;20863580;28;20033;-17
2021/06/29 16:08:09;;;;;;;61.65;8.75;;;23.40;69.50;;;;;;20857307;28;20029;-15
2021/06/29 16:18:11;;;;;;;48.53;7.85;;;23.60;70.00;;;;;;20853761;28;20080;-16
2021/06/29 16:28:12;;;;;;;24.23;5.22;;;23.80;70.00;;;;;;20819026;28;20029;-16
2021/06/29 16:38:13;;;;;;;16.55;5.28;;;23.70;69.60;;;;;;20849937;28;20052;-17
2021/06/29 16:48:14;;;;;;;16.48;5.55;;;23.90;68.80;;;;;;20859851;28;20035;-16
2021/06/29 16:58:15;;;;;;;11.20;3.27;;;23.80;68.50;;;;;;20878589;28;20112;-16
2021/06/29 17:08:15;;;;;;;4.38;2.75;;;23.90;67.50;;;;;;20868380;28;20111;-17
2021/06/29 17:18:16;;;;;;;3.13;2.05;;;23.80;67.20;;;;;;20859388;28;20057;-17
2021/06/29 17:28:16;;;;;;;6.55;3.05;;;23.90;67.40;;;;;;20866551;28;20033;-17
2021/06/29 17:38:17;;;;;;;4.43;1.67;;;23.80;66.80;;;;;;20841789;28;20029;-16
2021/06/29 17:48:17;;;;;;;5.43;2.10;;;23.80;66.40;;;;;;20873409;28;20061;-16
2021/06/29 17:58:18;;;;;;;5.43;1.50;;;23.70;66.20;;;;;;20874415;28;20040;-16
2021/06/29 18:08:18;;;;;;;2.75;1.55;;;23.60;66.10;;;;;;20866962;28;20025;-16
2021/06/29 18:18:19;;;;;;;6.15;3.78;;;23.60;66.00;;;;;;20843349;28;20496;-16
2021/06/29 18:28:20;;;;;;;5.27;3.63;;;23.50;65.80;;;;;;20868037;28;20389;-17
2021/06/29 18:38:20;;;;;;;5.43;3.55;;;23.50;65.80;;;;;;20875302;28;20029;-19
2021/06/29 18:48:21;;;;;;;5.25;2.97;;;23.40;65.70;;;;;;20873443;23;20501;-21
2021/06/29 18:58:22;;;;;;;6.05;2.08;;;23.40;66.00;;;;;;20867975;28;20061;-21
2021/06/29 19:08:22;;;;;;;4.28;2.28;;;23.40;65.80;;;;;;20908170;28;20103;-21
2021/06/29 19:18:23;;;;;;;6.53;2.93;;;23.40;65.90;;;;;;20906900;28;20024;-21
2021/06/29 19:28:23;;;;;;;6.35;3.67;;;23.30;65.90;;;;;;20902405;28;20040;-21
2021/06/29 19:38:31;;;;;;;4.43;4.03;;;23.40;66.30;;;;;;20972052;28;20612;-18
2021/06/29 19:48:32;;;;;;;3.80;3.40;;;23.30;65.40;;;;;;20970886;28;20051;-19
2021/06/29 19:58:33;;;;;;;4.93;3.47;;;23.30;65.20;;;;;;20914152;28;20024;-19
2021/06/29 20:08:34;;;;;;;5.45;3.97;;;23.30;64.80;;;;;;20936146;28;20098;-17
2021/06/29 20:18:35;;;;;;;4.65;3.38;;;23.30;65.00;;;;;;20948857;28;20103;-19
2021/06/29 20:28:35;;;;;;;6.43;3.58;;;23.30;65.30;;;;;;20952479;28;20025;-18
2021/06/29 20:38:36;;;;;;;4.95;2.75;;;23.40;65.60;;;;;;20955873;28;20083;-21
2021/06/29 20:48:36;;;;;;;4.00;3.60;;;23.40;65.80;;;;;;20920561;28;20021;-18
2021/06/29 20:58:37;;;;;;;6.18;3.70;;;23.40;65.90;;;;;;20912129;28;20082;-18
2021/06/29 21:08:43;;;;;;;4.00;3.40;;;23.40;66.00;;;;;;20897143;28;20032;-18
2021/06/29 21:18:43;;;;;;;5.03;3.75;;;23.40;66.20;;;;;;20900966;28;20025;-27
2021/06/29 21:28:44;;;;;;;4.13;3.72;;;23.50;66.10;;;;;;20910209;28;20108;-17
2021/06/29 21:38:44;;;;;;;5.95;3.53;;;23.40;66.10;;;;;;20910335;28;20071;-18
2021/06/29 21:48:45;;;;;;;5.18;3.72;;;23.40;65.90;;;;;;20909680;28;20480;-18
2021/06/29 21:58:46;;;;;;;11.67;4.90;;;23.40;65.90;;;;;;20894938;28;20028;-18
2021/06/29 22:08:47;;;;;;;6.57;4.07;;;23.30;65.90;;;;;;20904517;28;20528;-18
2021/06/29 22:18:48;;;;;;;5.75;4.22;;;23.20;63.70;;;;;;20903695;28;20099;-18
2021/06/29 22:28:50;;;;;;;13.80;4.63;;;23.10;63.40;;;;;;20830776;28;20049;-18
2021/06/29 22:38:50;;;;;;;6.05;3.60;;;23.10;62.90;;;;;;20879135;28;20033;-18
2021/06/29 22:48:51;;;;;;;5.80;3.53;;;23.00;62.50;;;;;;20876852;28;20036;-18
2021/06/29 22:58:54;;;;;;;4.70;3.33;;;23.00;63.00;;;;;;20866182;28;20028;-18
2021/06/29 23:08:54;;;;;;;8.73;3.58;;;22.90;63.00;;;;;;20858380;28;20040;-18
2021/06/29 23:18:56;;;;;;;8.75;3.33;;;23.00;63.20;;;;;;20840598;28;20480;-19
2021/06/29 23:28:57;;;;;;;5.20;3.05;;;23.00;62.60;;;;;;20860864;28;20086;-19
2021/06/29 23:38:57;;;;;;;9.20;2.47;;;22.90;62.70;;;;;;20868184;28;20060;-19
2021/06/29 23:48:59;;;;;;;4.13;1.75;;;22.90;64.00;;;;;;20866022;28;20060;-21
2021/06/29 23:59:00;;;;;;;3.30;1.70;;;22.80;65.40;;;;;;20861853;28;20541;-20
